createdAt,value
2017-10-30T00:00:53.613Z,99.99
2017-10-30T00:01:55.491Z,99.99
2017-10-30T00:02:57.371Z,99.99
2017-10-30T00:04:11.519Z,99.99
2017-10-30T00:05:13.395Z,99.99
2017-10-30T00:06:15.288Z,99.99
2017-10-30T00:07:17.161Z,99.99
2017-10-30T00:08:18.979Z,99.99
2017-10-30T00:09:20.791Z,99.87
2017-10-30T00:10:22.671Z,99.63
2017-10-30T00:11:24.545Z,99.54
2017-10-30T00:12:26.430Z,99.99
2017-10-30T00:13:40.574Z,99.82
2017-10-30T00:14:42.448Z,99.82
2017-10-30T00:15:44.325Z,99.58
2017-10-30T00:16:46.211Z,99.99
2017-10-30T00:17:48.038Z,99.99
2017-10-30T00:18:49.850Z,99.63
2017-10-30T00:19:51.731Z,99.44
2017-10-30T00:20:53.604Z,99.20
2017-10-30T00:21:55.483Z,98.73
2017-10-30T00:23:09.682Z,98.63
2017-10-30T00:24:11.557Z,99.11
2017-10-30T00:25:13.434Z,99.99
2017-10-30T00:26:15.311Z,99.54
2017-10-30T00:27:17.123Z,99.26
2017-10-30T00:28:18.938Z,99.35
2017-10-30T00:29:20.815Z,98.40
2017-10-30T00:30:22.689Z,97.78
2017-10-30T00:31:24.568Z,98.54
2017-10-30T00:32:38.718Z,98.63
2017-10-30T00:33:40.596Z,98.07
2017-10-30T00:34:42.476Z,98.63
2017-10-30T00:35:44.373Z,97.97
2017-10-30T00:36:46.200Z,98.44
2017-10-30T00:37:48.008Z,98.82
2017-10-30T00:38:49.881Z,98.07
2017-10-30T00:39:51.758Z,99.11
2017-10-30T00:40:53.635Z,99.01
2017-10-30T00:42:07.791Z,98.63
2017-10-30T00:43:09.666Z,98.63
2017-10-30T00:44:11.539Z,98.35
2017-10-30T00:45:13.415Z,99.68
2017-10-30T00:46:15.228Z,99.58
2017-10-30T00:47:17.041Z,98.92
2017-10-30T00:48:18.919Z,98.54
2017-10-30T00:49:20.794Z,98.73
2017-10-30T00:50:22.677Z,97.78
2017-10-30T00:51:36.872Z,97.78
2017-10-30T00:52:38.745Z,98.25
2017-10-30T00:53:40.623Z,98.44
2017-10-30T00:54:42.502Z,99.01
2017-10-30T00:55:44.314Z,98.35
2017-10-30T00:56:46.151Z,98.35
2017-10-30T00:57:48.014Z,99.01
2017-10-30T00:58:49.916Z,98.54
2017-10-30T00:59:51.794Z,99.20
2017-10-30T01:01:05.993Z,99.01
2017-10-30T01:02:07.868Z,99.30
2017-10-30T01:03:09.749Z,98.63
2017-10-30T01:04:11.623Z,98.54
2017-10-30T01:05:13.446Z,98.35
2017-10-30T01:06:15.262Z,98.54
2017-10-30T01:07:17.148Z,98.35
2017-10-30T01:08:19.014Z,98.54
2017-10-30T01:09:20.892Z,98.63
2017-10-30T01:10:35.089Z,98.25
2017-10-30T01:11:36.964Z,98.35
2017-10-30T01:12:38.843Z,98.07
2017-10-30T01:13:40.717Z,98.07
2017-10-30T01:14:42.535Z,97.69
2017-10-30T01:15:44.351Z,98.63
2017-10-30T01:16:46.251Z,98.35
2017-10-30T01:17:48.105Z,99.11
2017-10-30T01:18:49.982Z,98.44
2017-10-30T01:20:04.149Z,97.88
2017-10-30T01:21:06.010Z,98.44
2017-10-30T01:22:07.892Z,99.11
2017-10-30T01:23:09.777Z,99.01
2017-10-30T01:24:11.593Z,99.01
2017-10-30T01:25:13.406Z,99.01
2017-10-30T01:26:15.284Z,98.82
2017-10-30T01:27:17.120Z,99.58
2017-10-30T01:28:18.934Z,98.54
2017-10-30T01:29:33.083Z,98.54
2017-10-30T01:30:34.959Z,98.16
2017-10-30T01:31:36.836Z,97.97
2017-10-30T01:32:38.713Z,98.44
2017-10-30T01:33:40.526Z,98.63
2017-10-30T01:34:42.339Z,98.73
2017-10-30T01:35:44.220Z,97.69
2017-10-30T01:36:46.091Z,98.54
2017-10-30T01:37:47.969Z,98.44
2017-10-30T01:39:02.126Z,98.54
2017-10-30T01:40:03.997Z,99.01
2017-10-30T01:41:05.876Z,98.82
2017-10-30T01:42:07.753Z,98.63
2017-10-30T01:43:09.569Z,97.97
2017-10-30T01:44:11.383Z,98.35
2017-10-30T01:45:13.260Z,97.69
2017-10-30T01:46:15.136Z,98.54
2017-10-30T01:47:17.014Z,98.54
2017-10-30T01:48:31.163Z,98.35
2017-10-30T01:49:33.040Z,98.25
2017-10-30T01:50:34.927Z,98.44
2017-10-30T01:51:36.790Z,98.54
2017-10-30T01:52:38.605Z,98.07
2017-10-30T01:53:40.418Z,98.54
2017-10-30T01:54:42.299Z,98.54
2017-10-30T01:55:44.173Z,98.07
2017-10-30T01:56:46.051Z,98.16
2017-10-30T01:58:00.206Z,98.25
2017-10-30T01:59:02.082Z,98.07
2017-10-30T02:00:03.960Z,98.63
2017-10-30T02:01:05.845Z,98.54
2017-10-30T02:02:07.660Z,98.35
2017-10-30T02:03:09.474Z,98.16
2017-10-30T02:04:11.354Z,97.97
2017-10-30T02:05:13.231Z,97.78
2017-10-30T02:06:15.107Z,98.07
2017-10-30T02:07:29.239Z,98.02
2017-10-30T02:08:31.120Z,97.74
2017-10-30T02:09:32.996Z,98.40
2017-10-30T02:10:34.883Z,97.92
2017-10-30T02:11:36.692Z,97.12
2017-10-30T02:12:38.506Z,97.50
2017-10-30T02:13:40.382Z,97.21
2017-10-30T02:14:42.261Z,97.92
2017-10-30T02:15:44.147Z,97.64
2017-10-30T02:16:58.300Z,97.55
2017-10-30T02:18:00.175Z,97.36
2017-10-30T02:19:02.053Z,97.36
2017-10-30T02:20:03.930Z,97.45
2017-10-30T02:21:05.743Z,97.64
2017-10-30T02:22:07.558Z,98.02
2017-10-30T02:23:09.434Z,97.74
2017-10-30T02:24:11.309Z,98.11
2017-10-30T02:25:13.188Z,98.21
2017-10-30T02:26:27.336Z,97.83
2017-10-30T02:27:29.212Z,98.11
2017-10-30T02:28:31.089Z,97.74
2017-10-30T02:29:32.965Z,97.64
2017-10-30T02:30:34.780Z,97.74
2017-10-30T02:31:36.593Z,97.55
2017-10-30T02:32:38.475Z,97.36
2017-10-30T02:33:40.349Z,97.17
2017-10-30T02:34:42.237Z,97.55
2017-10-30T02:35:56.375Z,97.55
2017-10-30T02:36:58.266Z,97.92
2017-10-30T02:38:00.144Z,98.02
2017-10-30T02:39:02.018Z,98.11
2017-10-30T02:40:03.834Z,98.21
2017-10-30T02:41:05.655Z,96.97
2017-10-30T02:42:07.523Z,97.17
2017-10-30T02:43:09.399Z,97.07
2017-10-30T02:44:11.278Z,96.78
2017-10-30T02:45:25.427Z,97.17
2017-10-30T02:46:31.323Z,97.07
2017-10-30T02:47:33.209Z,96.78
2017-10-30T02:48:35.077Z,97.45
2017-10-30T02:49:36.894Z,97.07
2017-10-30T02:50:38.703Z,97.17
2017-10-30T02:51:40.579Z,97.83
2017-10-30T02:52:42.453Z,97.74
2017-10-30T02:53:44.328Z,97.45
2017-10-30T02:54:58.524Z,97.64
2017-10-30T02:56:00.398Z,97.26
2017-10-30T02:57:02.276Z,97.36
2017-10-30T02:58:04.148Z,97.17
2017-10-30T02:59:05.964Z,97.45
2017-10-30T03:00:07.776Z,97.64
2017-10-30T03:01:09.649Z,97.45
2017-10-30T03:02:11.524Z,96.78
2017-10-30T03:03:13.399Z,97.36
2017-10-30T03:04:27.544Z,96.69
2017-10-30T03:05:29.421Z,96.03
2017-10-30T03:06:31.300Z,96.31
2017-10-30T03:07:33.174Z,96.97
2017-10-30T03:08:34.988Z,96.69
2017-10-30T03:09:36.802Z,96.78
2017-10-30T03:10:38.675Z,97.17
2017-10-30T03:11:40.550Z,96.97
2017-10-30T03:12:42.424Z,96.88
2017-10-30T03:13:56.620Z,96.50
2017-10-30T03:14:58.494Z,96.69
2017-10-30T03:16:00.372Z,96.31
2017-10-30T03:17:02.244Z,96.97
2017-10-30T03:18:04.068Z,96.97
2017-10-30T03:19:05.869Z,96.97
2017-10-30T03:20:07.744Z,96.78
2017-10-30T03:21:09.618Z,96.88
2017-10-30T03:22:11.494Z,96.22
2017-10-30T03:23:25.640Z,96.78
2017-10-30T03:24:27.524Z,96.97
2017-10-30T03:25:29.402Z,96.59
2017-10-30T03:26:31.280Z,96.03
2017-10-30T03:27:33.092Z,95.74
2017-10-30T03:28:34.903Z,95.65
2017-10-30T03:29:36.776Z,96.12
2017-10-30T03:30:38.651Z,96.41
2017-10-30T03:31:40.523Z,97.07
2017-10-30T03:32:54.667Z,97.17
2017-10-30T03:33:56.541Z,96.50
2017-10-30T03:34:58.421Z,96.12
2017-10-30T03:36:00.292Z,96.31
2017-10-30T03:37:02.107Z,96.31
2017-10-30T03:38:03.920Z,96.31
2017-10-30T03:39:05.792Z,96.03
2017-10-30T03:40:07.668Z,96.22
2017-10-30T03:41:09.540Z,96.03
2017-10-30T03:42:23.687Z,96.03
2017-10-30T03:43:25.561Z,96.12
2017-10-30T03:44:27.438Z,95.36
2017-10-30T03:45:29.312Z,95.46
2017-10-30T03:46:31.127Z,95.74
2017-10-30T03:47:32.939Z,95.74
2017-10-30T03:48:34.814Z,95.74
2017-10-30T03:49:36.689Z,95.74
2017-10-30T03:50:38.562Z,95.36
2017-10-30T03:51:52.762Z,95.55
2017-10-30T03:52:54.634Z,95.27
2017-10-30T03:53:56.523Z,95.55
2017-10-30T03:54:58.394Z,95.93
2017-10-30T03:56:00.219Z,95.84
2017-10-30T03:57:02.029Z,95.84
2017-10-30T03:58:03.905Z,95.89
2017-10-30T03:59:05.780Z,95.36
2017-10-30T04:00:07.655Z,95.22
2017-10-30T04:01:21.802Z,95.41
2017-10-30T04:02:23.675Z,94.65
2017-10-30T04:03:25.553Z,94.89
2017-10-30T04:04:27.426Z,95.07
2017-10-30T04:05:29.240Z,94.60
2017-10-30T04:06:31.053Z,94.60
2017-10-30T04:07:32.925Z,94.98
2017-10-30T04:08:34.799Z,95.17
2017-10-30T04:09:36.673Z,95.36
2017-10-30T04:10:50.821Z,95.36
2017-10-30T04:11:52.695Z,94.98
2017-10-30T04:12:54.576Z,96.03
2017-10-30T04:13:56.447Z,95.74
2017-10-30T04:14:58.263Z,95.60
2017-10-30T04:16:00.074Z,95.31
2017-10-30T04:17:01.948Z,95.41
2017-10-30T04:18:03.823Z,95.51
2017-10-30T04:19:05.708Z,95.12
2017-10-30T04:20:19.856Z,95.51
2017-10-30T04:21:21.729Z,95.60
2017-10-30T04:22:23.609Z,95.41
2017-10-30T04:23:25.482Z,95.60
2017-10-30T04:24:27.297Z,95.89
2017-10-30T04:25:29.110Z,96.08
2017-10-30T04:26:30.949Z,95.89
2017-10-30T04:27:32.756Z,96.08
2017-10-30T04:28:34.571Z,96.64
2017-10-30T04:29:48.770Z,97.36
2017-10-30T04:30:50.668Z,97.88
2017-10-30T04:31:52.547Z,97.69
2017-10-30T04:32:54.428Z,97.12
2017-10-30T04:33:56.239Z,97.41
2017-10-30T04:34:58.052Z,96.83
2017-10-30T04:35:59.928Z,96.83
2017-10-30T04:37:01.804Z,97.02
2017-10-30T04:38:03.679Z,96.83
2017-10-30T04:39:17.827Z,97.22
2017-10-30T04:40:19.726Z,96.26
2017-10-30T04:41:21.602Z,96.74
2017-10-30T04:42:23.478Z,96.17
2017-10-30T04:43:25.305Z,97.31
2017-10-30T04:44:27.116Z,96.83
2017-10-30T04:45:28.990Z,96.08
2017-10-30T04:46:30.865Z,97.02
2017-10-30T04:47:32.741Z,96.26
2017-10-30T04:48:46.887Z,95.03
2017-10-30T04:49:48.759Z,96.08
2017-10-30T04:50:50.640Z,95.89
2017-10-30T04:51:52.511Z,96.08
2017-10-30T04:52:54.328Z,95.93
2017-10-30T04:53:56.141Z,96.59
2017-10-30T04:54:58.014Z,97.26
2017-10-30T04:55:59.894Z,96.69
2017-10-30T04:57:01.768Z,97.92
2017-10-30T04:58:15.914Z,97.26
2017-10-30T04:59:17.788Z,96.22
2017-10-30T05:00:19.667Z,96.78
2017-10-30T05:01:21.539Z,97.26
2017-10-30T05:02:23.368Z,96.78
2017-10-30T05:03:25.165Z,97.36
2017-10-30T05:04:27.039Z,97.36
2017-10-30T05:05:28.914Z,97.26
2017-10-30T05:06:30.785Z,97.36
2017-10-30T05:07:44.981Z,97.41
2017-10-30T05:08:46.853Z,97.50
2017-10-30T05:09:48.731Z,97.50
2017-10-30T05:10:50.608Z,97.22
2017-10-30T05:11:52.426Z,97.31
2017-10-30T05:12:54.237Z,97.02
2017-10-30T05:13:56.117Z,96.55
2017-10-30T05:14:57.986Z,97.12
2017-10-30T05:15:59.875Z,96.03
2017-10-30T05:17:14.059Z,96.83
2017-10-30T05:18:15.934Z,97.02
2017-10-30T05:19:17.813Z,96.93
2017-10-30T05:20:19.688Z,96.45
2017-10-30T05:21:21.505Z,95.93
2017-10-30T05:22:23.315Z,96.22
2017-10-30T05:23:25.189Z,95.74
2017-10-30T05:24:27.063Z,96.59
2017-10-30T05:25:28.943Z,96.12
2017-10-30T05:26:43.086Z,96.78
2017-10-30T05:27:44.960Z,96.31
2017-10-30T05:28:46.838Z,96.22
2017-10-30T05:29:48.714Z,96.12
2017-10-30T05:30:50.529Z,97.07
2017-10-30T05:31:52.341Z,96.03
2017-10-30T05:32:54.217Z,96.97
2017-10-30T05:33:56.115Z,96.97
2017-10-30T05:34:58.000Z,97.17
2017-10-30T05:36:12.153Z,96.88
2017-10-30T05:37:14.027Z,96.31
2017-10-30T05:38:15.905Z,96.22
2017-10-30T05:39:17.799Z,96.78
2017-10-30T05:40:19.593Z,97.07
2017-10-30T05:41:21.404Z,96.88
2017-10-30T05:42:23.294Z,96.97
2017-10-30T05:43:25.169Z,96.69
2017-10-30T05:44:27.043Z,96.03
2017-10-30T05:45:41.191Z,96.50
2017-10-30T05:46:43.065Z,96.03
2017-10-30T05:47:44.948Z,96.22
2017-10-30T05:48:46.822Z,96.69
2017-10-30T05:49:48.636Z,97.07
2017-10-30T05:50:50.449Z,96.59
2017-10-30T05:51:52.323Z,96.31
2017-10-30T05:52:54.202Z,96.31
2017-10-30T05:53:56.079Z,96.31
2017-10-30T05:55:10.231Z,96.97
2017-10-30T05:56:12.109Z,96.03
2017-10-30T05:57:13.992Z,96.59
2017-10-30T05:58:15.866Z,96.03
2017-10-30T05:59:17.698Z,96.22
2017-10-30T06:00:19.517Z,96.50
2017-10-30T06:01:21.394Z,96.31
2017-10-30T06:02:23.271Z,96.03
2017-10-30T06:03:25.147Z,96.03
2017-10-30T06:04:39.297Z,96.03
2017-10-30T06:05:41.174Z,96.22
2017-10-30T06:06:43.057Z,96.22
2017-10-30T06:07:44.933Z,96.69
2017-10-30T06:08:46.780Z,97.07
2017-10-30T06:09:48.618Z,96.88
2017-10-30T06:10:50.502Z,97.07
2017-10-30T06:11:52.407Z,97.17
2017-10-30T06:12:54.286Z,96.88
2017-10-30T06:14:08.438Z,96.12
2017-10-30T06:15:10.315Z,96.59
2017-10-30T06:16:12.199Z,96.12
2017-10-30T06:17:14.075Z,97.17
2017-10-30T06:18:15.894Z,96.97
2017-10-30T06:19:17.722Z,96.41
2017-10-30T06:20:19.599Z,95.84
2017-10-30T06:21:21.476Z,96.12
2017-10-30T06:22:23.353Z,95.46
2017-10-30T06:23:37.502Z,96.03
2017-10-30T06:24:39.380Z,95.74
2017-10-30T06:25:41.274Z,96.22
2017-10-30T06:26:43.146Z,96.03
2017-10-30T06:27:44.975Z,95.55
2017-10-30T06:28:46.796Z,96.03
2017-10-30T06:29:48.674Z,96.59
2017-10-30T06:30:50.554Z,95.74
2017-10-30T06:31:52.432Z,95.65
2017-10-30T06:33:06.584Z,94.98
2017-10-30T06:34:08.462Z,94.89
2017-10-30T06:35:10.343Z,94.70
2017-10-30T06:36:12.218Z,94.70
2017-10-30T06:37:14.037Z,94.51
2017-10-30T06:38:15.853Z,94.79
2017-10-30T06:39:17.731Z,94.79
2017-10-30T06:40:19.609Z,94.93
2017-10-30T06:41:21.488Z,94.79
2017-10-30T06:42:35.638Z,94.79
2017-10-30T06:43:37.515Z,95.55
2017-10-30T06:44:39.399Z,95.84
2017-10-30T06:45:41.383Z,95.84
2017-10-30T06:46:43.204Z,96.03
2017-10-30T06:47:45.043Z,96.03
2017-10-30T06:48:46.858Z,95.74
2017-10-30T06:49:48.736Z,96.03
2017-10-30T06:50:50.613Z,95.93
2017-10-30T06:52:04.764Z,95.84
2017-10-30T06:53:06.642Z,95.93
2017-10-30T06:54:08.674Z,95.93
2017-10-30T06:55:10.533Z,95.17
2017-10-30T06:56:12.353Z,95.36
2017-10-30T06:57:14.167Z,96.03
2017-10-30T06:58:16.061Z,96.03
2017-10-30T06:59:17.940Z,95.98
2017-10-30T07:00:19.831Z,95.03
2017-10-30T07:01:34.036Z,95.60
2017-10-30T07:02:35.915Z,94.56
2017-10-30T07:03:37.797Z,95.03
2017-10-30T07:04:39.678Z,94.08
2017-10-30T07:05:41.512Z,93.41
2017-10-30T07:06:43.330Z,93.04
2017-10-30T07:07:45.212Z,92.66
2017-10-30T07:08:47.090Z,92.28
2017-10-30T07:09:48.972Z,91.85
2017-10-30T07:11:03.126Z,92.23
2017-10-30T07:12:05.004Z,93.08
2017-10-30T07:13:06.890Z,92.33
2017-10-30T07:14:08.768Z,92.80
2017-10-30T07:15:10.589Z,93.18
2017-10-30T07:16:12.408Z,92.99
2017-10-30T07:17:14.289Z,93.32
2017-10-30T07:18:16.168Z,92.94
2017-10-30T07:19:18.048Z,91.80
2017-10-30T07:20:32.219Z,92.09
2017-10-30T07:21:34.100Z,92.37
2017-10-30T07:22:35.984Z,93.04
2017-10-30T07:23:37.861Z,92.66
2017-10-30T07:24:39.682Z,92.18
2017-10-30T07:25:41.501Z,92.56
2017-10-30T07:26:43.377Z,92.66
2017-10-30T07:27:45.264Z,92.85
2017-10-30T07:28:47.144Z,92.85
2017-10-30T07:30:01.290Z,92.90
2017-10-30T07:31:03.168Z,92.80
2017-10-30T07:32:05.053Z,93.37
2017-10-30T07:33:06.931Z,93.46
2017-10-30T07:34:08.751Z,93.94
2017-10-30T07:35:10.569Z,94.13
2017-10-30T07:36:12.448Z,93.75
2017-10-30T07:37:14.327Z,93.84
2017-10-30T07:38:16.206Z,93.65
2017-10-30T07:39:30.362Z,94.13
2017-10-30T07:40:32.241Z,94.18
2017-10-30T07:41:34.123Z,94.18
2017-10-30T07:42:36.005Z,94.37
2017-10-30T07:43:37.823Z,93.51
2017-10-30T07:44:39.653Z,93.23
2017-10-30T07:45:41.533Z,93.23
2017-10-30T07:46:43.413Z,93.32
2017-10-30T07:47:45.295Z,93.04
2017-10-30T07:48:59.445Z,93.13
2017-10-30T07:50:01.323Z,93.23
2017-10-30T07:51:03.207Z,92.85
2017-10-30T07:52:05.091Z,92.18
2017-10-30T07:53:06.908Z,91.52
2017-10-30T07:54:08.723Z,91.04
2017-10-30T07:55:10.602Z,90.95
2017-10-30T07:56:12.480Z,91.61
2017-10-30T07:57:14.372Z,91.99
2017-10-30T07:58:28.526Z,91.89
2017-10-30T07:59:30.403Z,90.66
2017-10-30T08:00:32.286Z,89.43
2017-10-30T08:01:34.172Z,89.81
2017-10-30T08:02:35.991Z,89.72
2017-10-30T08:03:37.800Z,90.00
2017-10-30T08:04:39.692Z,90.66
2017-10-30T08:05:41.574Z,89.72
2017-10-30T08:06:43.463Z,88.39
2017-10-30T08:07:57.618Z,87.91
2017-10-30T08:08:59.496Z,88.29
2017-10-30T08:10:01.381Z,89.05
2017-10-30T08:11:03.261Z,88.76
2017-10-30T08:12:05.082Z,88.01
2017-10-30T08:13:06.895Z,87.91
2017-10-30T08:14:08.776Z,87.82
2017-10-30T08:15:10.654Z,87.72
2017-10-30T08:16:12.536Z,87.53
2017-10-30T08:17:26.735Z,88.20
2017-10-30T08:18:28.616Z,87.53
2017-10-30T08:19:30.498Z,87.05
2017-10-30T08:20:32.378Z,87.24
2017-10-30T08:21:34.199Z,87.05
2017-10-30T08:22:36.019Z,86.49
2017-10-30T08:23:37.898Z,86.58
2017-10-30T08:24:39.779Z,86.20
2017-10-30T08:25:41.658Z,86.30
2017-10-30T08:26:55.811Z,86.01
2017-10-30T08:27:57.702Z,85.82
2017-10-30T08:28:59.584Z,85.72
2017-10-30T08:30:01.465Z,85.82
2017-10-30T08:31:03.285Z,86.24
2017-10-30T08:32:05.168Z,85.53
2017-10-30T08:33:07.048Z,85.49
2017-10-30T08:34:08.931Z,83.92
2017-10-30T08:35:11.178Z,84.49
2017-10-30T08:36:25.476Z,85.86
2017-10-30T08:37:27.413Z,85.39
2017-10-30T08:38:29.299Z,85.01
2017-10-30T08:39:31.180Z,84.25
2017-10-30T08:40:33.002Z,83.11
2017-10-30T08:41:34.822Z,83.30
2017-10-30T08:42:36.744Z,83.30
2017-10-30T08:43:38.590Z,83.78
2017-10-30T08:44:40.470Z,83.39
2017-10-30T08:45:54.625Z,83.11
2017-10-30T08:46:56.553Z,82.73
2017-10-30T08:47:58.414Z,83.11
2017-10-30T08:49:00.312Z,83.20
2017-10-30T08:50:02.132Z,82.77
2017-10-30T08:51:03.950Z,82.07
2017-10-30T08:52:05.832Z,81.87
2017-10-30T08:53:07.714Z,81.68
2017-10-30T08:54:09.643Z,82.82
2017-10-30T08:55:23.858Z,82.73
2017-10-30T08:56:25.747Z,82.45
2017-10-30T08:57:27.630Z,83.11
2017-10-30T08:58:29.511Z,83.39
2017-10-30T08:59:31.335Z,82.73
2017-10-30T09:00:33.156Z,83.01
2017-10-30T09:01:35.035Z,83.11
2017-10-30T09:02:36.914Z,82.64
2017-10-30T09:03:38.795Z,82.64
2017-10-30T09:04:52.954Z,83.20
2017-10-30T09:05:54.830Z,83.20
2017-10-30T09:06:56.739Z,83.34
2017-10-30T09:07:58.598Z,82.58
2017-10-30T09:09:00.433Z,81.92
2017-10-30T09:10:02.270Z,83.11
2017-10-30T09:11:04.138Z,83.91
2017-10-30T09:12:06.017Z,84.29
2017-10-30T09:13:07.898Z,83.34
2017-10-30T09:14:22.053Z,83.72
2017-10-30T09:15:23.968Z,82.58
2017-10-30T09:16:25.817Z,83.34
2017-10-30T09:17:27.699Z,82.39
2017-10-30T09:18:29.520Z,81.54
2017-10-30T09:19:31.343Z,81.73
2017-10-30T09:20:33.221Z,81.82
2017-10-30T09:21:35.103Z,81.73
2017-10-30T09:22:36.982Z,81.82
2017-10-30T09:23:51.156Z,81.92
2017-10-30T09:24:53.021Z,82.20
2017-10-30T09:25:54.907Z,81.29
2017-10-30T09:26:56.788Z,81.38
2017-10-30T09:27:58.621Z,81.29
2017-10-30T09:29:00.441Z,81.01
2017-10-30T09:30:02.325Z,80.87
2017-10-30T09:31:04.211Z,81.06
2017-10-30T09:32:06.088Z,80.87
2017-10-30T09:33:20.250Z,81.58
2017-10-30T09:34:22.128Z,80.53
2017-10-30T09:35:24.014Z,80.44
2017-10-30T09:36:25.892Z,80.21
2017-10-30T09:37:27.714Z,81.16
2017-10-30T09:38:29.544Z,80.58
2017-10-30T09:39:31.425Z,80.11
2017-10-30T09:40:33.305Z,80.63
2017-10-30T09:41:35.185Z,80.24
2017-10-30T09:42:49.321Z,79.63
2017-10-30T09:43:51.202Z,80.58
2017-10-30T09:44:53.090Z,80.30
2017-10-30T09:45:54.967Z,79.83
2017-10-30T09:46:56.787Z,80.02
2017-10-30T09:47:58.608Z,80.58
2017-10-30T09:49:00.514Z,80.40
2017-10-30T09:50:02.398Z,80.68
2017-10-30T09:51:04.282Z,81.16
2017-10-30T09:52:18.435Z,79.73
2017-10-30T09:53:20.316Z,79.06
2017-10-30T09:54:22.199Z,78.40
2017-10-30T09:55:24.078Z,78.69
2017-10-30T09:56:25.919Z,78.69
2017-10-30T09:57:27.738Z,78.88
2017-10-30T09:58:29.614Z,79.44
2017-10-30T09:59:31.497Z,78.40
2017-10-30T10:00:33.373Z,78.11
2017-10-30T10:01:47.529Z,79.06
2017-10-30T10:02:49.410Z,78.78
2017-10-30T10:03:51.296Z,79.25
2017-10-30T10:04:53.178Z,79.77
2017-10-30T10:05:54.999Z,79.30
2017-10-30T10:06:56.818Z,78.25
2017-10-30T10:07:58.700Z,78.72
2017-10-30T10:09:00.583Z,78.91
2017-10-30T10:10:02.462Z,76.82
2017-10-30T10:11:16.621Z,77.39
2017-10-30T10:12:18.501Z,78.25
2017-10-30T10:13:20.440Z,78.44
2017-10-30T10:14:22.321Z,78.72
2017-10-30T10:15:24.155Z,76.82
2017-10-30T10:16:25.974Z,76.92
2017-10-30T10:17:27.859Z,76.92
2017-10-30T10:18:29.743Z,76.35
2017-10-30T10:19:31.626Z,76.82
2017-10-30T10:20:45.840Z,76.06
2017-10-30T10:21:47.718Z,76.63
2017-10-30T10:22:49.601Z,76.54
2017-10-30T10:23:51.507Z,77.17
2017-10-30T10:24:53.393Z,76.63
2017-10-30T10:25:55.184Z,77.36
2017-10-30T10:26:57.062Z,77.39
2017-10-30T10:27:58.946Z,77.58
2017-10-30T10:29:00.833Z,76.92
2017-10-30T10:30:14.996Z,77.49
2017-10-30T10:31:16.874Z,76.54
2017-10-30T10:32:18.792Z,75.21
2017-10-30T10:33:20.676Z,75.78
2017-10-30T10:34:22.516Z,74.92
2017-10-30T10:35:24.328Z,75.68
2017-10-30T10:36:26.215Z,75.78
2017-10-30T10:37:28.096Z,75.02
2017-10-30T10:38:29.977Z,74.73
2017-10-30T10:39:44.132Z,75.78
2017-10-30T10:40:46.024Z,75.78
2017-10-30T10:41:47.922Z,75.21
2017-10-30T10:42:49.792Z,74.63
2017-10-30T10:43:51.614Z,73.30
2017-10-30T10:44:53.450Z,73.02
2017-10-30T10:45:55.332Z,73.59
2017-10-30T10:46:57.212Z,72.64
2017-10-30T10:47:59.097Z,72.55
2017-10-30T10:49:13.252Z,72.64
2017-10-30T10:50:15.133Z,72.64
2017-10-30T10:51:17.037Z,72.64
2017-10-30T10:52:19.001Z,72.16
2017-10-30T10:53:20.878Z,71.41
2017-10-30T10:54:22.759Z,71.50
2017-10-30T10:55:24.637Z,71.59
2017-10-30T10:56:26.517Z,70.99
2017-10-30T10:57:28.424Z,71.37
2017-10-30T10:58:42.584Z,71.84
2017-10-30T10:59:44.500Z,72.07
2017-10-30T11:00:46.383Z,72.74
2017-10-30T11:01:48.265Z,72.92
2017-10-30T11:02:50.088Z,72.07
2017-10-30T11:03:51.909Z,72.35
2017-10-30T11:04:53.792Z,72.64
2017-10-30T11:05:55.676Z,71.88
2017-10-30T11:06:57.558Z,71.59
2017-10-30T11:08:11.761Z,71.41
2017-10-30T11:09:13.644Z,73.30
2017-10-30T11:10:15.530Z,72.83
2017-10-30T11:11:17.411Z,73.21
2017-10-30T11:12:19.239Z,72.83
2017-10-30T11:13:21.058Z,71.88
2017-10-30T11:14:22.940Z,71.69
2017-10-30T11:15:24.819Z,71.12
2017-10-30T11:16:26.698Z,70.36
2017-10-30T11:17:40.863Z,71.12
2017-10-30T11:18:42.762Z,70.74
2017-10-30T11:19:44.630Z,70.07
2017-10-30T11:20:46.510Z,68.55
2017-10-30T11:21:48.342Z,68.55
2017-10-30T11:22:50.172Z,68.74
2017-10-30T11:23:52.082Z,69.02
2017-10-30T11:24:53.956Z,69.60
2017-10-30T11:25:55.835Z,70.45
2017-10-30T11:27:10.024Z,69.92
2017-10-30T11:28:11.900Z,69.54
2017-10-30T11:29:13.789Z,68.87
2017-10-30T11:30:15.661Z,67.54
2017-10-30T11:31:17.484Z,66.65
2017-10-30T11:32:19.303Z,67.22
2017-10-30T11:33:21.187Z,67.69
2017-10-30T11:34:23.069Z,68.46
2017-10-30T11:35:24.949Z,68.55
2017-10-30T11:36:39.120Z,68.93
2017-10-30T11:37:40.997Z,66.84
2017-10-30T11:38:42.887Z,66.65
2017-10-30T11:39:44.765Z,66.65
2017-10-30T11:40:46.586Z,66.94
2017-10-30T11:41:48.416Z,67.32
2017-10-30T11:42:50.305Z,66.65
2017-10-30T11:43:52.180Z,65.51
2017-10-30T11:44:54.059Z,65.80
2017-10-30T11:46:08.214Z,65.99
2017-10-30T11:47:10.095Z,66.36
2017-10-30T11:48:11.978Z,66.74
2017-10-30T11:49:13.857Z,65.89
2017-10-30T11:50:15.683Z,66.46
2017-10-30T11:51:17.505Z,66.94
2017-10-30T11:52:19.431Z,67.50
2017-10-30T11:53:21.315Z,66.94
2017-10-30T11:54:23.195Z,66.08
2017-10-30T11:55:37.352Z,66.17
2017-10-30T11:56:39.235Z,66.46
2017-10-30T11:57:41.115Z,67.50
2017-10-30T11:58:42.996Z,67.50
2017-10-30T11:59:44.822Z,67.13
2017-10-30T12:00:46.641Z,66.08
2017-10-30T12:01:48.537Z,66.27
2017-10-30T12:02:50.410Z,66.59
2017-10-30T12:03:52.290Z,66.87
2017-10-30T12:05:06.468Z,64.40
2017-10-30T12:06:08.419Z,64.11
2017-10-30T12:07:10.690Z,62.40
2017-10-30T12:08:12.539Z,61.74
2017-10-30T12:09:14.361Z,62.56
2017-10-30T12:10:16.184Z,63.32
2017-10-30T12:11:18.019Z,63.23
2017-10-30T12:12:19.854Z,63.89
2017-10-30T12:13:21.673Z,64.84
2017-10-30T12:14:35.826Z,65.60
2017-10-30T12:15:37.704Z,64.65
2017-10-30T12:16:39.597Z,64.18
2017-10-30T12:17:41.499Z,64.27
2017-10-30T12:18:43.299Z,65.13
2017-10-30T12:19:45.129Z,65.32
2017-10-30T12:20:47.011Z,65.89
2017-10-30T12:21:48.891Z,66.36
2017-10-30T12:22:50.771Z,66.65
2017-10-30T12:24:04.975Z,66.74
2017-10-30T12:25:07.003Z,66.84
2017-10-30T12:26:08.966Z,67.13
2017-10-30T12:27:10.903Z,65.13
2017-10-30T12:28:12.735Z,63.99
2017-10-30T12:29:14.554Z,62.85
2017-10-30T12:30:16.522Z,62.37
2017-10-30T12:31:18.401Z,61.39
2017-10-30T12:32:20.283Z,61.04
2017-10-30T12:33:34.439Z,61.39
2017-10-30T12:34:36.317Z,61.42
2017-10-30T12:35:38.199Z,61.52
2017-10-30T12:36:40.077Z,61.23
2017-10-30T12:37:41.900Z,61.32
2017-10-30T12:38:43.848Z,61.04
2017-10-30T12:39:45.843Z,59.14
2017-10-30T12:40:47.721Z,59.42
2017-10-30T12:41:49.625Z,59.23
2017-10-30T12:43:03.743Z,58.76
2017-10-30T12:44:05.565Z,59.33
2017-10-30T12:45:07.388Z,59.23
2017-10-30T12:46:09.208Z,59.61
2017-10-30T12:47:11.050Z,58.95
2017-10-30T12:48:12.932Z,59.14
2017-10-30T12:49:14.817Z,59.61
2017-10-30T12:50:16.671Z,60.38
2017-10-30T12:51:18.487Z,60.66
2017-10-30T12:52:32.654Z,60.44
2017-10-30T12:53:34.535Z,60.91
2017-10-30T12:54:36.445Z,60.82
2017-10-30T12:55:38.329Z,61.58
2017-10-30T12:56:40.259Z,61.96
2017-10-30T12:57:42.088Z,62.24
2017-10-30T12:58:43.977Z,61.68
2017-10-30T12:59:45.858Z,61.87
2017-10-30T13:00:47.743Z,63.29
2017-10-30T13:02:01.897Z,62.91
2017-10-30T13:03:03.776Z,63.67
2017-10-30T13:04:05.691Z,64.05
2017-10-30T13:05:07.571Z,63.86
2017-10-30T13:06:09.393Z,64.05
2017-10-30T13:07:11.213Z,63.67
2017-10-30T13:08:13.100Z,63.86
2017-10-30T13:09:14.981Z,63.86
2017-10-30T13:10:16.860Z,64.34
2017-10-30T13:11:31.062Z,64.72
2017-10-30T13:12:32.945Z,64.72
2017-10-30T13:13:34.828Z,65.32
2017-10-30T13:14:36.708Z,65.28
2017-10-30T13:15:38.530Z,65.41
2017-10-30T13:16:40.361Z,65.60
2017-10-30T13:17:42.244Z,65.99
2017-10-30T13:18:44.123Z,66.27
2017-10-30T13:19:46.006Z,66.46
2017-10-30T13:21:00.158Z,66.27
2017-10-30T13:22:02.043Z,65.89
2017-10-30T13:23:03.928Z,66.59
2017-10-30T13:24:05.809Z,66.49
2017-10-30T13:25:07.631Z,66.39
2017-10-30T13:26:09.452Z,65.45
2017-10-30T13:27:11.335Z,64.97
2017-10-30T13:28:13.219Z,65.51
2017-10-30T13:29:15.099Z,66.08
2017-10-30T13:30:29.260Z,66.74
2017-10-30T13:31:31.135Z,66.65
2017-10-30T13:32:33.023Z,66.39
2017-10-30T13:33:34.904Z,67.79
2017-10-30T13:34:36.727Z,67.44